sensor_id;sensor_type;location;lat;lon;timestamp;P1;durP1;ratioP1;P2;durP2;ratioP2
78778;SDS011;68121;52.404;5.318;2023-09-30T00:02:22;7.40;;;1.88;;
78778;SDS011;68121;52.404;5.318;2023-09-30T00:04:48;7.93;;;2.00;;
78778;SDS011;68121;52.404;5.318;2023-09-30T00:07:14;5.38;;;1.83;;
78778;SDS011;68121;52.404;5.318;2023-09-30T00:09:40;4.15;;;1.70;;
78778;SDS011;68121;52.404;5.318;2023-09-30T00:12:06;6.28;;;1.73;;
78778;SDS011;68121;52.404;5.318;2023-09-30T00:14:32;6.60;;;2.00;;
78778;SDS011;68121;52.404;5.318;2023-09-30T00:16:59;7.22;;;1.75;;
78778;SDS011;68121;52.404;5.318;2023-09-30T00:19:25;5.68;;;1.80;;
78778;SDS011;68121;52.404;5.318;2023-09-30T00:21:51;2.60;;;1.38;;
78778;SDS011;68121;52.404;5.318;2023-09-30T00:24:17;8.65;;;2.10;;
78778;SDS011;68121;52.404;5.318;2023-09-30T00:26:43;6.95;;;2.05;;
78778;SDS011;68121;52.404;5.318;2023-09-30T00:29:09;5.47;;;2.28;;
78778;SDS011;68121;52.404;5.318;2023-09-30T00:31:36;6.57;;;2.08;;
78778;SDS011;68121;52.404;5.318;2023-09-30T00:34:02;5.85;;;2.40;;
78778;SDS011;68121;52.404;5.318;2023-09-30T00:36:28;3.22;;;1.75;;
78778;SDS011;68121;52.404;5.318;2023-09-30T00:38:54;6.30;;;1.90;;
78778;SDS011;68121;52.404;5.318;2023-09-30T00:41:20;7.13;;;1.67;;
78778;SDS011;68121;52.404;5.318;2023-09-30T00:43:46;6.50;;;2.00;;
78778;SDS011;68121;52.404;5.318;2023-09-30T00:48:53;5.13;;;1.58;;
78778;SDS011;68121;52.404;5.318;2023-09-30T00:51:21;6.95;;;1.92;;
78778;SDS011;68121;52.404;5.318;2023-09-30T00:53:48;5.50;;;2.13;;
78778;SDS011;68121;52.404;5.318;2023-09-30T00:56:16;4.60;;;1.75;;
78778;SDS011;68121;52.404;5.318;2023-09-30T00:58:44;6.47;;;1.58;;
78778;SDS011;68121;52.404;5.318;2023-09-30T01:01:13;5.50;;;2.30;;
78778;SDS011;68121;52.404;5.318;2023-09-30T01:03:40;5.93;;;2.55;;
78778;SDS011;68121;52.404;5.318;2023-09-30T01:06:06;4.72;;;1.90;;
78778;SDS011;68121;52.404;5.318;2023-09-30T01:08:33;9.93;;;2.30;;
78778;SDS011;68121;52.404;5.318;2023-09-30T01:10:59;6.82;;;2.13;;
78778;SDS011;68121;52.404;5.318;2023-09-30T01:13:36;8.10;;;2.00;;
78778;SDS011;68121;52.404;5.318;2023-09-30T01:16:12;9.70;;;2.42;;
78778;SDS011;68121;52.404;5.318;2023-09-30T01:18:38;4.30;;;2.00;;
78778;SDS011;68121;52.404;5.318;2023-09-30T01:21:08;5.47;;;2.40;;
78778;SDS011;68121;52.404;5.318;2023-09-30T01:23:35;8.50;;;2.60;;
78778;SDS011;68121;52.404;5.318;2023-09-30T01:26:12;7.88;;;2.40;;
78778;SDS011;68121;52.404;5.318;2023-09-30T01:28:39;11.70;;;1.92;;
78778;SDS011;68121;52.404;5.318;2023-09-30T01:31:05;3.33;;;1.80;;
78778;SDS011;68121;52.404;5.318;2023-09-30T01:33:32;8.70;;;2.67;;
78778;SDS011;68121;52.404;5.318;2023-09-30T01:35:58;6.07;;;2.25;;
78778;SDS011;68121;52.404;5.318;2023-09-30T01:38:25;7.70;;;2.53;;
78778;SDS011;68121;52.404;5.318;2023-09-30T01:40:51;4.72;;;2.00;;
78778;SDS011;68121;52.404;5.318;2023-09-30T01:43:19;6.38;;;2.00;;
78778;SDS011;68121;52.404;5.318;2023-09-30T01:45:45;7.95;;;2.22;;
78778;SDS011;68121;52.404;5.318;2023-09-30T01:48:11;6.80;;;2.42;;
78778;SDS011;68121;52.404;5.318;2023-09-30T01:50:38;8.02;;;1.80;;
78778;SDS011;68121;52.404;5.318;2023-09-30T01:53:05;6.28;;;2.30;;
78778;SDS011;68121;52.404;5.318;2023-09-30T01:55:35;6.95;;;2.78;;
78778;SDS011;68121;52.404;5.318;2023-09-30T01:58:01;8.02;;;2.15;;
78778;SDS011;68121;52.404;5.318;2023-09-30T02:00:29;5.13;;;2.33;;
78778;SDS011;68121;52.404;5.318;2023-09-30T02:02:56;7.55;;;2.45;;
78778;SDS011;68121;52.404;5.318;2023-09-30T02:05:22;7.30;;;2.42;;
78778;SDS011;68121;52.404;5.318;2023-09-30T02:07:49;5.35;;;2.03;;
78778;SDS011;68121;52.404;5.318;2023-09-30T02:10:16;6.35;;;2.97;;
78778;SDS011;68121;52.404;5.318;2023-09-30T02:12:45;6.38;;;3.10;;
78778;SDS011;68121;52.404;5.318;2023-09-30T02:15:12;9.82;;;3.35;;
78778;SDS011;68121;52.404;5.318;2023-09-30T02:17:39;5.13;;;2.20;;
78778;SDS011;68121;52.404;5.318;2023-09-30T02:20:05;5.38;;;1.98;;
78778;SDS011;68121;52.404;5.318;2023-09-30T02:22:38;5.43;;;2.25;;
78778;SDS011;68121;52.404;5.318;2023-09-30T02:25:05;10.80;;;3.10;;
78778;SDS011;68121;52.404;5.318;2023-09-30T02:27:33;9.88;;;2.85;;
78778;SDS011;68121;52.404;5.318;2023-09-30T02:29:59;6.70;;;2.83;;
78778;SDS011;68121;52.404;5.318;2023-09-30T02:32:26;5.85;;;2.60;;
78778;SDS011;68121;52.404;5.318;2023-09-30T02:34:52;7.15;;;2.70;;
78778;SDS011;68121;52.404;5.318;2023-09-30T02:37:18;8.63;;;2.65;;
78778;SDS011;68121;52.404;5.318;2023-09-30T02:39:44;5.70;;;3.13;;
78778;SDS011;68121;52.404;5.318;2023-09-30T02:42:10;9.45;;;3.20;;
78778;SDS011;68121;52.404;5.318;2023-09-30T02:44:36;9.02;;;3.03;;
78778;SDS011;68121;52.404;5.318;2023-09-30T02:47:02;11.10;;;3.13;;
78778;SDS011;68121;52.404;5.318;2023-09-30T02:49:30;10.05;;;3.20;;
78778;SDS011;68121;52.404;5.318;2023-09-30T02:51:58;8.13;;;3.08;;
78778;SDS011;68121;52.404;5.318;2023-09-30T02:54:24;5.10;;;2.78;;
78778;SDS011;68121;52.404;5.318;2023-09-30T02:56:50;7.93;;;3.08;;
78778;SDS011;68121;52.404;5.318;2023-09-30T02:59:17;9.60;;;3.55;;
78778;SDS011;68121;52.404;5.318;2023-09-30T03:01:44;5.57;;;2.80;;
78778;SDS011;68121;52.404;5.318;2023-09-30T03:04:12;6.70;;;2.97;;
78778;SDS011;68121;52.404;5.318;2023-09-30T03:06:38;8.05;;;3.20;;
78778;SDS011;68121;52.404;5.318;2023-09-30T03:09:05;5.10;;;3.20;;
78778;SDS011;68121;52.404;5.318;2023-09-30T03:11:31;11.18;;;3.50;;
78778;SDS011;68121;52.404;5.318;2023-09-30T03:13:57;10.00;;;3.35;;
78778;SDS011;68121;52.404;5.318;2023-09-30T03:16:24;8.40;;;3.63;;
78778;SDS011;68121;52.404;5.318;2023-09-30T03:18:50;8.15;;;3.35;;
78778;SDS011;68121;52.404;5.318;2023-09-30T03:21:16;8.13;;;3.30;;
78778;SDS011;68121;52.404;5.318;2023-09-30T03:23:43;7.18;;;3.20;;
78778;SDS011;68121;52.404;5.318;2023-09-30T03:26:09;7.95;;;3.28;;
78778;SDS011;68121;52.404;5.318;2023-09-30T03:28:36;8.45;;;3.45;;
78778;SDS011;68121;52.404;5.318;2023-09-30T03:31:05;11.35;;;3.83;;
78778;SDS011;68121;52.404;5.318;2023-09-30T03:33:32;9.07;;;3.55;;
78778;SDS011;68121;52.404;5.318;2023-09-30T03:35:58;8.23;;;3.75;;
78778;SDS011;68121;52.404;5.318;2023-09-30T03:38:25;9.02;;;3.72;;
78778;SDS011;68121;52.404;5.318;2023-09-30T03:40:52;9.10;;;3.92;;
78778;SDS011;68121;52.404;5.318;2023-09-30T03:43:23;11.30;;;4.15;;
78778;SDS011;68121;52.404;5.318;2023-09-30T03:45:51;9.38;;;4.13;;
78778;SDS011;68121;52.404;5.318;2023-09-30T03:48:19;10.68;;;4.07;;
78778;SDS011;68121;52.404;5.318;2023-09-30T03:50:45;7.90;;;4.10;;
78778;SDS011;68121;52.404;5.318;2023-09-30T03:53:11;10.25;;;4.00;;
78778;SDS011;68121;52.404;5.318;2023-09-30T03:55:37;10.80;;;4.07;;
78778;SDS011;68121;52.404;5.318;2023-09-30T03:58:03;8.48;;;3.42;;
78778;SDS011;68121;52.404;5.318;2023-09-30T04:00:29;9.77;;;4.15;;
78778;SDS011;68121;52.404;5.318;2023-09-30T04:02:56;10.32;;;3.90;;
78778;SDS011;68121;52.404;5.318;2023-09-30T04:05:24;9.80;;;4.50;;
78778;SDS011;68121;52.404;5.318;2023-09-30T04:07:55;9.02;;;3.95;;
78778;SDS011;68121;52.404;5.318;2023-09-30T04:10:21;10.82;;;3.92;;
78778;SDS011;68121;52.404;5.318;2023-09-30T04:12:48;11.10;;;4.45;;
78778;SDS011;68121;52.404;5.318;2023-09-30T04:15:14;9.77;;;4.70;;
78778;SDS011;68121;52.404;5.318;2023-09-30T04:17:41;11.25;;;4.03;;
78778;SDS011;68121;52.404;5.318;2023-09-30T04:20:07;12.60;;;5.53;;
78778;SDS011;68121;52.404;5.318;2023-09-30T04:22:36;11.13;;;4.57;;
78778;SDS011;68121;52.404;5.318;2023-09-30T04:25:02;10.43;;;4.35;;
78778;SDS011;68121;52.404;5.318;2023-09-30T04:27:35;8.50;;;4.82;;
78778;SDS011;68121;52.404;5.318;2023-09-30T04:30:01;11.68;;;5.40;;
78778;SDS011;68121;52.404;5.318;2023-09-30T04:32:37;11.05;;;4.93;;
78778;SDS011;68121;52.404;5.318;2023-09-30T04:35:04;11.88;;;4.97;;
78778;SDS011;68121;52.404;5.318;2023-09-30T04:37:31;9.60;;;4.75;;
78778;SDS011;68121;52.404;5.318;2023-09-30T04:39:57;11.85;;;5.00;;
78778;SDS011;68121;52.404;5.318;2023-09-30T04:42:24;12.55;;;5.38;;
78778;SDS011;68121;52.404;5.318;2023-09-30T04:44:51;13.77;;;5.55;;
78778;SDS011;68121;52.404;5.318;2023-09-30T04:47:18;8.68;;;5.13;;
78778;SDS011;68121;52.404;5.318;2023-09-30T04:49:44;10.18;;;4.63;;
78778;SDS011;68121;52.404;5.318;2023-09-30T04:52:10;13.15;;;4.68;;
78778;SDS011;68121;52.404;5.318;2023-09-30T04:54:36;9.25;;;4.95;;
78778;SDS011;68121;52.404;5.318;2023-09-30T04:57:02;10.00;;;4.78;;
78778;SDS011;68121;52.404;5.318;2023-09-30T04:59:29;8.48;;;4.45;;
78778;SDS011;68121;52.404;5.318;2023-09-30T05:01:55;10.30;;;5.28;;
78778;SDS011;68121;52.404;5.318;2023-09-30T05:04:21;13.30;;;5.88;;
78778;SDS011;68121;52.404;5.318;2023-09-30T05:06:51;10.98;;;4.75;;
78778;SDS011;68121;52.404;5.318;2023-09-30T05:09:17;11.32;;;5.13;;
78778;SDS011;68121;52.404;5.318;2023-09-30T05:11:43;9.23;;;4.43;;
78778;SDS011;68121;52.404;5.318;2023-09-30T05:14:09;15.85;;;5.80;;
78778;SDS011;68121;52.404;5.318;2023-09-30T05:16:35;8.95;;;5.25;;
78778;SDS011;68121;52.404;5.318;2023-09-30T05:19:02;10.02;;;5.38;;
78778;SDS011;68121;52.404;5.318;2023-09-30T05:21:30;11.57;;;5.47;;
78778;SDS011;68121;52.404;5.318;2023-09-30T05:23:56;14.45;;;5.07;;
78778;SDS011;68121;52.404;5.318;2023-09-30T05:26:22;14.20;;;4.90;;
78778;SDS011;68121;52.404;5.318;2023-09-30T05:28:48;12.98;;;5.43;;
78778;SDS011;68121;52.404;5.318;2023-09-30T05:31:14;10.88;;;5.20;;
78778;SDS011;68121;52.404;5.318;2023-09-30T05:33:40;10.98;;;5.43;;
78778;SDS011;68121;52.404;5.318;2023-09-30T05:36:06;9.52;;;5.45;;
78778;SDS011;68121;52.404;5.318;2023-09-30T05:38:32;11.10;;;5.95;;
78778;SDS011;68121;52.404;5.318;2023-09-30T05:40:59;12.05;;;5.72;;
78778;SDS011;68121;52.404;5.318;2023-09-30T05:43:26;12.98;;;6.53;;
78778;SDS011;68121;52.404;5.318;2023-09-30T05:45:52;14.27;;;5.90;;
78778;SDS011;68121;52.404;5.318;2023-09-30T05:48:20;9.13;;;4.95;;
78778;SDS011;68121;52.404;5.318;2023-09-30T05:50:47;8.73;;;5.10;;
78778;SDS011;68121;52.404;5.318;2023-09-30T05:53:13;12.55;;;6.10;;
78778;SDS011;68121;52.404;5.318;2023-09-30T05:55:39;14.43;;;6.18;;
78778;SDS011;68121;52.404;5.318;2023-09-30T05:58:09;11.65;;;5.68;;
78778;SDS011;68121;52.404;5.318;2023-09-30T06:00:35;15.00;;;6.15;;
78778;SDS011;68121;52.404;5.318;2023-09-30T06:03:03;14.05;;;6.65;;
78778;SDS011;68121;52.404;5.318;2023-09-30T06:05:33;12.45;;;6.00;;
78778;SDS011;68121;52.404;5.318;2023-09-30T06:08:01;15.75;;;6.47;;
78778;SDS011;68121;52.404;5.318;2023-09-30T06:10:29;13.18;;;5.45;;
78778;SDS011;68121;52.404;5.318;2023-09-30T06:12:56;14.18;;;5.85;;
78778;SDS011;68121;52.404;5.318;2023-09-30T06:15:23;12.02;;;6.22;;
78778;SDS011;68121;52.404;5.318;2023-09-30T06:17:51;15.65;;;7.53;;
78778;SDS011;68121;52.404;5.318;2023-09-30T06:20:18;13.75;;;6.18;;
78778;SDS011;68121;52.404;5.318;2023-09-30T06:22:48;16.55;;;7.03;;
78778;SDS011;68121;52.404;5.318;2023-09-30T06:25:17;13.00;;;5.93;;
78778;SDS011;68121;52.404;5.318;2023-09-30T06:27:44;16.13;;;7.05;;
78778;SDS011;68121;52.404;5.318;2023-09-30T06:30:11;13.38;;;5.95;;
78778;SDS011;68121;52.404;5.318;2023-09-30T06:32:39;14.82;;;6.50;;
78778;SDS011;68121;52.404;5.318;2023-09-30T06:35:06;14.18;;;6.80;;
78778;SDS011;68121;52.404;5.318;2023-09-30T06:37:41;13.68;;;6.70;;
78778;SDS011;68121;52.404;5.318;2023-09-30T06:40:08;15.90;;;6.55;;
78778;SDS011;68121;52.404;5.318;2023-09-30T06:42:37;15.85;;;6.93;;
78778;SDS011;68121;52.404;5.318;2023-09-30T06:45:03;13.45;;;6.55;;
78778;SDS011;68121;52.404;5.318;2023-09-30T06:47:34;15.77;;;6.75;;
78778;SDS011;68121;52.404;5.318;2023-09-30T06:50:07;15.60;;;7.13;;
78778;SDS011;68121;52.404;5.318;2023-09-30T06:52:36;14.65;;;6.47;;
78778;SDS011;68121;52.404;5.318;2023-09-30T06:55:03;14.15;;;7.15;;
78778;SDS011;68121;52.404;5.318;2023-09-30T06:57:36;15.80;;;7.18;;
78778;SDS011;68121;52.404;5.318;2023-09-30T07:00:09;15.63;;;7.15;;
78778;SDS011;68121;52.404;5.318;2023-09-30T07:02:38;21.35;;;7.25;;
78778;SDS011;68121;52.404;5.318;2023-09-30T07:05:12;17.05;;;6.97;;
78778;SDS011;68121;52.404;5.318;2023-09-30T07:07:39;12.35;;;6.53;;
78778;SDS011;68121;52.404;5.318;2023-09-30T07:10:08;20.40;;;8.13;;
78778;SDS011;68121;52.404;5.318;2023-09-30T07:12:35;16.88;;;7.40;;
78778;SDS011;68121;52.404;5.318;2023-09-30T07:15:01;16.48;;;7.88;;
78778;SDS011;68121;52.404;5.318;2023-09-30T07:17:28;14.57;;;7.03;;
78778;SDS011;68121;52.404;5.318;2023-09-30T07:19:55;15.13;;;7.25;;
78778;SDS011;68121;52.404;5.318;2023-09-30T07:22:21;14.07;;;7.03;;
78778;SDS011;68121;52.404;5.318;2023-09-30T07:24:48;14.45;;;7.28;;
78778;SDS011;68121;52.404;5.318;2023-09-30T07:27:14;13.75;;;6.97;;
78778;SDS011;68121;52.404;5.318;2023-09-30T07:29:40;13.32;;;6.65;;
78778;SDS011;68121;52.404;5.318;2023-09-30T07:32:07;17.73;;;7.55;;
78778;SDS011;68121;52.404;5.318;2023-09-30T07:34:34;16.40;;;8.18;;
78778;SDS011;68121;52.404;5.318;2023-09-30T07:37:00;14.30;;;7.03;;
78778;SDS011;68121;52.404;5.318;2023-09-30T07:39:27;11.95;;;6.47;;
78778;SDS011;68121;52.404;5.318;2023-09-30T07:41:54;11.48;;;6.90;;
78778;SDS011;68121;52.404;5.318;2023-09-30T07:44:20;14.27;;;6.93;;
78778;SDS011;68121;52.404;5.318;2023-09-30T07:46:46;11.88;;;6.65;;
78778;SDS011;68121;52.404;5.318;2023-09-30T07:49:12;11.55;;;6.53;;
78778;SDS011;68121;52.404;5.318;2023-09-30T07:51:38;11.85;;;6.03;;
78778;SDS011;68121;52.404;5.318;2023-09-30T07:54:07;10.80;;;6.32;;
78778;SDS011;68121;52.404;5.318;2023-09-30T07:56:33;13.80;;;6.30;;
78778;SDS011;68121;52.404;5.318;2023-09-30T07:58:59;10.07;;;6.20;;
78778;SDS011;68121;52.404;5.318;2023-09-30T08:01:25;11.05;;;5.45;;
78778;SDS011;68121;52.404;5.318;2023-09-30T08:03:51;11.75;;;5.75;;
78778;SDS011;68121;52.404;5.318;2023-09-30T08:06:17;13.82;;;5.97;;
78778;SDS011;68121;52.404;5.318;2023-09-30T08:08:43;13.63;;;5.75;;
78778;SDS011;68121;52.404;5.318;2023-09-30T08:11:09;11.20;;;5.70;;
78778;SDS011;68121;52.404;5.318;2023-09-30T08:13:35;11.88;;;5.50;;
78778;SDS011;68121;52.404;5.318;2023-09-30T08:16:02;7.53;;;4.32;;
78778;SDS011;68121;52.404;5.318;2023-09-30T08:18:28;10.90;;;5.53;;
78778;SDS011;68121;52.404;5.318;2023-09-30T08:20:54;10.15;;;4.75;;
78778;SDS011;68121;52.404;5.318;2023-09-30T08:23:20;12.57;;;4.88;;
78778;SDS011;68121;52.404;5.318;2023-09-30T08:25:46;11.55;;;5.05;;
78778;SDS011;68121;52.404;5.318;2023-09-30T08:28:12;12.27;;;5.20;;
78778;SDS011;68121;52.404;5.318;2023-09-30T08:30:38;10.55;;;4.97;;
78778;SDS011;68121;52.404;5.318;2023-09-30T08:33:04;8.82;;;4.72;;
78778;SDS011;68121;52.404;5.318;2023-09-30T08:35:37;11.02;;;4.57;;
78778;SDS011;68121;52.404;5.318;2023-09-30T08:38:03;9.50;;;4.88;;
78778;SDS011;68121;52.404;5.318;2023-09-30T08:40:30;10.55;;;4.75;;
78778;SDS011;68121;52.404;5.318;2023-09-30T08:42:56;10.88;;;4.60;;
78778;SDS011;68121;52.404;5.318;2023-09-30T08:45:23;8.20;;;4.38;;
78778;SDS011;68121;52.404;5.318;2023-09-30T08:47:49;9.60;;;4.15;;
78778;SDS011;68121;52.404;5.318;2023-09-30T08:50:16;12.23;;;4.82;;
78778;SDS011;68121;52.404;5.318;2023-09-30T08:52:44;10.23;;;4.30;;
78778;SDS011;68121;52.404;5.318;2023-09-30T08:55:11;9.23;;;4.03;;
78778;SDS011;68121;52.404;5.318;2023-09-30T08:57:38;9.85;;;4.43;;
78778;SDS011;68121;52.404;5.318;2023-09-30T09:00:08;7.35;;;3.63;;
78778;SDS011;68121;52.404;5.318;2023-09-30T09:02:38;14.15;;;4.25;;
78778;SDS011;68121;52.404;5.318;2023-09-30T09:05:05;8.30;;;3.75;;
78778;SDS011;68121;52.404;5.318;2023-09-30T09:07:32;8.05;;;3.25;;
78778;SDS011;68121;52.404;5.318;2023-09-30T09:10:10;7.13;;;3.58;;
78778;SDS011;68121;52.404;5.318;2023-09-30T09:12:39;7.40;;;2.90;;
78778;SDS011;68121;52.404;5.318;2023-09-30T09:15:06;11.05;;;3.50;;
78778;SDS011;68121;52.404;5.318;2023-09-30T09:17:43;8.35;;;3.10;;
78778;SDS011;68121;52.404;5.318;2023-09-30T09:20:10;5.93;;;2.58;;
78778;SDS011;68121;52.404;5.318;2023-09-30T09:22:43;7.78;;;2.42;;
78778;SDS011;68121;52.404;5.318;2023-09-30T09:25:10;9.40;;;2.75;;
78778;SDS011;68121;52.404;5.318;2023-09-30T09:27:36;12.35;;;2.58;;
78778;SDS011;68121;52.404;5.318;2023-09-30T09:30:16;9.15;;;2.53;;
78778;SDS011;68121;52.404;5.318;2023-09-30T09:32:53;5.95;;;2.80;;
78778;SDS011;68121;52.404;5.318;2023-09-30T09:35:25;4.28;;;2.28;;
78778;SDS011;68121;52.404;5.318;2023-09-30T09:37:56;8.75;;;2.45;;
78778;SDS011;68121;52.404;5.318;2023-09-30T09:40:24;7.30;;;2.17;;
78778;SDS011;68121;52.404;5.318;2023-09-30T09:42:52;4.60;;;2.55;;
78778;SDS011;68121;52.404;5.318;2023-09-30T09:45:20;4.45;;;2.33;;
78778;SDS011;68121;52.404;5.318;2023-09-30T09:47:48;6.85;;;2.33;;
78778;SDS011;68121;52.404;5.318;2023-09-30T09:50:14;11.30;;;2.35;;
78778;SDS011;68121;52.404;5.318;2023-09-30T09:52:42;6.38;;;2.42;;
78778;SDS011;68121;52.404;5.318;2023-09-30T09:55:11;8.30;;;2.67;;
78778;SDS011;68121;52.404;5.318;2023-09-30T09:57:40;5.57;;;1.67;;
78778;SDS011;68121;52.404;5.318;2023-09-30T10:00:10;9.65;;;2.05;;
78778;SDS011;68121;52.404;5.318;2023-09-30T10:02:42;6.47;;;1.88;;
78778;SDS011;68121;52.404;5.318;2023-09-30T10:05:08;4.22;;;1.33;;
78778;SDS011;68121;52.404;5.318;2023-09-30T10:07:38;4.70;;;1.65;;
78778;SDS011;68121;52.404;5.318;2023-09-30T10:10:11;4.85;;;1.98;;
78778;SDS011;68121;52.404;5.318;2023-09-30T10:12:40;6.35;;;1.48;;
78778;SDS011;68121;52.404;5.318;2023-09-30T10:18:00;6.13;;;1.75;;
78778;SDS011;68121;52.404;5.318;2023-09-30T10:20:40;5.10;;;1.80;;
78778;SDS011;68121;52.404;5.318;2023-09-30T10:23:19;5.40;;;1.52;;
78778;SDS011;68121;52.404;5.318;2023-09-30T10:25:53;8.18;;;1.30;;
78778;SDS011;68121;52.404;5.318;2023-09-30T10:31:18;6.53;;;1.88;;
78778;SDS011;68121;52.404;5.318;2023-09-30T10:36:32;6.63;;;1.52;;
78778;SDS011;68121;52.404;5.318;2023-09-30T10:39:10;6.93;;;1.70;;
78778;SDS011;68121;52.404;5.318;2023-09-30T10:46:48;4.43;;;1.85;;
78778;SDS011;68121;52.404;5.318;2023-09-30T10:49:16;5.82;;;1.83;;
78778;SDS011;68121;52.404;5.318;2023-09-30T10:51:43;5.88;;;2.10;;
78778;SDS011;68121;52.404;5.318;2023-09-30T10:54:10;5.72;;;2.78;;
78778;SDS011;68121;52.404;5.318;2023-09-30T10:56:38;7.40;;;2.30;;
78778;SDS011;68121;52.404;5.318;2023-09-30T10:59:04;3.70;;;1.98;;
78778;SDS011;68121;52.404;5.318;2023-09-30T11:01:33;5.50;;;2.13;;
78778;SDS011;68121;52.404;5.318;2023-09-30T11:04:01;7.32;;;2.35;;
78778;SDS011;68121;52.404;5.318;2023-09-30T11:06:30;10.15;;;2.88;;
78778;SDS011;68121;52.404;5.318;2023-09-30T11:08:58;6.32;;;2.65;;
78778;SDS011;68121;52.404;5.318;2023-09-30T11:14:22;13.25;;;2.88;;
78778;SDS011;68121;52.404;5.318;2023-09-30T11:16:53;8.52;;;2.50;;
78778;SDS011;68121;52.404;5.318;2023-09-30T11:19:20;6.10;;;2.72;;
78778;SDS011;68121;52.404;5.318;2023-09-30T11:21:48;5.45;;;2.00;;
78778;SDS011;68121;52.404;5.318;2023-09-30T11:24:15;6.95;;;1.75;;
78778;SDS011;68121;52.404;5.318;2023-09-30T11:26:41;4.00;;;1.98;;
78778;SDS011;68121;52.404;5.318;2023-09-30T11:29:14;4.55;;;1.70;;
78778;SDS011;68121;52.404;5.318;2023-09-30T11:31:42;3.17;;;1.27;;
78778;SDS011;68121;52.404;5.318;2023-09-30T11:34:09;6.00;;;1.48;;
78778;SDS011;68121;52.404;5.318;2023-09-30T11:36:37;6.05;;;1.63;;
78778;SDS011;68121;52.404;5.318;2023-09-30T11:39:08;4.93;;;1.13;;
78778;SDS011;68121;52.404;5.318;2023-09-30T11:41:35;1.98;;;0.90;;
78778;SDS011;68121;52.404;5.318;2023-09-30T11:44:07;3.78;;;1.52;;
78778;SDS011;68121;52.404;5.318;2023-09-30T11:46:48;4.68;;;0.70;;
78778;SDS011;68121;52.404;5.318;2023-09-30T11:52:08;5.57;;;1.10;;
78778;SDS011;68121;52.404;5.318;2023-09-30T11:54:36;4.35;;;1.55;;
78778;SDS011;68121;52.404;5.318;2023-09-30T11:57:07;3.80;;;0.93;;
78778;SDS011;68121;52.404;5.318;2023-09-30T11:59:36;5.35;;;1.20;;
78778;SDS011;68121;52.404;5.318;2023-09-30T12:02:04;9.07;;;1.58;;
78778;SDS011;68121;52.404;5.318;2023-09-30T12:04:37;5.15;;;1.85;;
78778;SDS011;68121;52.404;5.318;2023-09-30T12:07:03;8.45;;;1.88;;
78778;SDS011;68121;52.404;5.318;2023-09-30T12:09:30;7.97;;;1.90;;
78778;SDS011;68121;52.404;5.318;2023-09-30T12:11:57;6.90;;;2.03;;
78778;SDS011;68121;52.404;5.318;2023-09-30T12:14:25;4.28;;;1.95;;
78778;SDS011;68121;52.404;5.318;2023-09-30T12:16:52;6.22;;;1.50;;
78778;SDS011;68121;52.404;5.318;2023-09-30T12:19:18;4.90;;;2.00;;
78778;SDS011;68121;52.404;5.318;2023-09-30T12:21:45;3.13;;;1.65;;
78778;SDS011;68121;52.404;5.318;2023-09-30T12:24:13;10.48;;;1.80;;
78778;SDS011;68121;52.404;5.318;2023-09-30T12:26:45;5.93;;;2.35;;
78778;SDS011;68121;52.404;5.318;2023-09-30T12:29:15;5.00;;;1.50;;
78778;SDS011;68121;52.404;5.318;2023-09-30T12:31:43;4.03;;;1.75;;
78778;SDS011;68121;52.404;5.318;2023-09-30T12:34:10;8.60;;;1.70;;
78778;SDS011;68121;52.404;5.318;2023-09-30T12:36:37;5.15;;;2.17;;
78778;SDS011;68121;52.404;5.318;2023-09-30T12:39:04;4.93;;;1.85;;
78778;SDS011;68121;52.404;5.318;2023-09-30T12:44:03;4.75;;;1.63;;
78778;SDS011;68121;52.404;5.318;2023-09-30T12:46:29;4.88;;;1.85;;
78778;SDS011;68121;52.404;5.318;2023-09-30T12:48:56;5.13;;;1.83;;
78778;SDS011;68121;52.404;5.318;2023-09-30T12:51:23;3.40;;;1.40;;
78778;SDS011;68121;52.404;5.318;2023-09-30T12:53:50;7.47;;;1.63;;
78778;SDS011;68121;52.404;5.318;2023-09-30T12:56:16;4.97;;;2.05;;
78778;SDS011;68121;52.404;5.318;2023-09-30T12:58:42;6.60;;;1.65;;
78778;SDS011;68121;52.404;5.318;2023-09-30T13:01:08;4.57;;;1.55;;
78778;SDS011;68121;52.404;5.318;2023-09-30T13:03:35;4.97;;;1.42;;
78778;SDS011;68121;52.404;5.318;2023-09-30T13:06:01;3.55;;;1.27;;
78778;SDS011;68121;52.404;5.318;2023-09-30T13:08:27;5.30;;;1.80;;
78778;SDS011;68121;52.404;5.318;2023-09-30T13:11:02;5.78;;;1.60;;
78778;SDS011;68121;52.404;5.318;2023-09-30T13:13:29;3.40;;;0.95;;
78778;SDS011;68121;52.404;5.318;2023-09-30T13:15:57;5.55;;;1.45;;
78778;SDS011;68121;52.404;5.318;2023-09-30T13:18:23;6.68;;;1.48;;
78778;SDS011;68121;52.404;5.318;2023-09-30T13:20:49;7.32;;;1.70;;
78778;SDS011;68121;52.404;5.318;2023-09-30T13:23:17;7.15;;;1.08;;
78778;SDS011;68121;52.404;5.318;2023-09-30T13:25:45;3.53;;;1.48;;
78778;SDS011;68121;52.404;5.318;2023-09-30T13:28:11;4.90;;;1.35;;
78778;SDS011;68121;52.404;5.318;2023-09-30T13:30:37;6.10;;;1.17;;
78778;SDS011;68121;52.404;5.318;2023-09-30T13:33:03;6.75;;;1.50;;
78778;SDS011;68121;52.404;5.318;2023-09-30T13:35:29;6.70;;;1.00;;
78778;SDS011;68121;52.404;5.318;2023-09-30T13:37:55;3.47;;;1.30;;
78778;SDS011;68121;52.404;5.318;2023-09-30T13:40:22;5.40;;;1.40;;
78778;SDS011;68121;52.404;5.318;2023-09-30T13:42:48;5.53;;;1.40;;
78778;SDS011;68121;52.404;5.318;2023-09-30T13:45:14;7.35;;;2.22;;
78778;SDS011;68121;52.404;5.318;2023-09-30T13:47:42;10.85;;;1.70;;
78778;SDS011;68121;52.404;5.318;2023-09-30T13:50:12;3.92;;;1.10;;
78778;SDS011;68121;52.404;5.318;2023-09-30T13:52:38;7.68;;;2.45;;
78778;SDS011;68121;52.404;5.318;2023-09-30T13:55:04;5.75;;;1.80;;
78778;SDS011;68121;52.404;5.318;2023-09-30T13:57:30;2.78;;;0.90;;
78778;SDS011;68121;52.404;5.318;2023-09-30T13:59:56;4.35;;;1.35;;
78778;SDS011;68121;52.404;5.318;2023-09-30T14:02:23;7.10;;;1.73;;
78778;SDS011;68121;52.404;5.318;2023-09-30T14:04:49;3.83;;;1.30;;
78778;SDS011;68121;52.404;5.318;2023-09-30T14:07:15;6.40;;;1.25;;
78778;SDS011;68121;52.404;5.318;2023-09-30T14:09:44;3.03;;;1.00;;
78778;SDS011;68121;52.404;5.318;2023-09-30T14:12:10;5.07;;;1.30;;
78778;SDS011;68121;52.404;5.318;2023-09-30T14:14:37;5.38;;;1.80;;
78778;SDS011;68121;52.404;5.318;2023-09-30T14:17:03;9.60;;;2.15;;
78778;SDS011;68121;52.404;5.318;2023-09-30T14:19:36;5.97;;;1.50;;
78778;SDS011;68121;52.404;5.318;2023-09-30T14:22:04;6.32;;;1.40;;
78778;SDS011;68121;52.404;5.318;2023-09-30T14:24:31;6.95;;;1.85;;
78778;SDS011;68121;52.404;5.318;2023-09-30T14:27:01;5.80;;;1.65;;
78778;SDS011;68121;52.404;5.318;2023-09-30T14:29:28;5.43;;;1.40;;
78778;SDS011;68121;52.404;5.318;2023-09-30T14:31:57;6.70;;;1.83;;
78778;SDS011;68121;52.404;5.318;2023-09-30T14:34:24;6.88;;;1.63;;
78778;SDS011;68121;52.404;5.318;2023-09-30T14:36:51;5.43;;;1.90;;
78778;SDS011;68121;52.404;5.318;2023-09-30T14:39:17;5.88;;;1.50;;
78778;SDS011;68121;52.404;5.318;2023-09-30T14:41:44;5.82;;;1.75;;
78778;SDS011;68121;52.404;5.318;2023-09-30T14:44:11;4.93;;;1.70;;
78778;SDS011;68121;52.404;5.318;2023-09-30T14:46:40;8.55;;;1.80;;
78778;SDS011;68121;52.404;5.318;2023-09-30T14:49:06;4.35;;;1.58;;
78778;SDS011;68121;52.404;5.318;2023-09-30T14:51:33;6.57;;;1.70;;
78778;SDS011;68121;52.404;5.318;2023-09-30T14:54:01;6.78;;;1.92;;
78778;SDS011;68121;52.404;5.318;2023-09-30T14:56:28;7.32;;;2.08;;
78778;SDS011;68121;52.404;5.318;2023-09-30T14:58:54;6.38;;;2.17;;
78778;SDS011;68121;52.404;5.318;2023-09-30T15:01:20;5.75;;;1.90;;
78778;SDS011;68121;52.404;5.318;2023-09-30T15:03:47;5.32;;;1.80;;
78778;SDS011;68121;52.404;5.318;2023-09-30T15:06:14;6.03;;;1.65;;
78778;SDS011;68121;52.404;5.318;2023-09-30T15:08:40;6.85;;;2.17;;
78778;SDS011;68121;52.404;5.318;2023-09-30T15:11:11;10.23;;;1.98;;